sensor_id;sensor_type;location;lat;lon;timestamp;P1;durP1;ratioP1;P2;durP2;ratioP2
32780;SDS011;19136;47.032;15.502;2023-07-29T00:00:43;5.35;;;3.58;;
32780;SDS011;19136;47.032;15.502;2023-07-29T00:03:09;7.03;;;3.80;;
32780;SDS011;19136;47.032;15.502;2023-07-29T00:05:35;5.28;;;3.90;;
32780;SDS011;19136;47.032;15.502;2023-07-29T00:08:02;6.70;;;3.40;;
32780;SDS011;19136;47.032;15.502;2023-07-29T00:10:28;8.00;;;3.78;;
32780;SDS011;19136;47.032;15.502;2023-07-29T00:12:54;7.00;;;4.00;;
32780;SDS011;19136;47.032;15.502;2023-07-29T00:15:20;8.55;;;3.85;;
32780;SDS011;19136;47.032;15.502;2023-07-29T00:17:45;5.93;;;3.75;;
32780;SDS011;19136;47.032;15.502;2023-07-29T00:20:11;8.23;;;4.03;;
32780;SDS011;19136;47.032;15.502;2023-07-29T00:22:40;9.10;;;3.90;;
32780;SDS011;19136;47.032;15.502;2023-07-29T00:25:06;5.43;;;3.47;;
32780;SDS011;19136;47.032;15.502;2023-07-29T00:27:33;6.75;;;3.85;;
32780;SDS011;19136;47.032;15.502;2023-07-29T00:29:59;11.85;;;4.10;;
32780;SDS011;19136;47.032;15.502;2023-07-29T00:32:26;9.27;;;3.95;;
32780;SDS011;19136;47.032;15.502;2023-07-29T00:34:54;6.68;;;3.63;;
32780;SDS011;19136;47.032;15.502;2023-07-29T00:37:20;6.28;;;3.80;;
32780;SDS011;19136;47.032;15.502;2023-07-29T00:39:46;11.85;;;3.50;;
32780;SDS011;19136;47.032;15.502;2023-07-29T00:42:12;4.82;;;3.63;;
32780;SDS011;19136;47.032;15.502;2023-07-29T00:44:38;6.03;;;3.78;;
32780;SDS011;19136;47.032;15.502;2023-07-29T00:47:04;5.70;;;3.40;;
32780;SDS011;19136;47.032;15.502;2023-07-29T00:49:30;9.10;;;4.30;;
32780;SDS011;19136;47.032;15.502;2023-07-29T00:51:57;5.47;;;3.70;;
32780;SDS011;19136;47.032;15.502;2023-07-29T00:54:24;5.75;;;3.75;;
32780;SDS011;19136;47.032;15.502;2023-07-29T00:56:50;5.93;;;4.18;;
32780;SDS011;19136;47.032;15.502;2023-07-29T00:59:16;10.15;;;3.88;;
32780;SDS011;19136;47.032;15.502;2023-07-29T01:01:42;6.88;;;4.22;;
32780;SDS011;19136;47.032;15.502;2023-07-29T01:04:07;6.82;;;4.00;;
32780;SDS011;19136;47.032;15.502;2023-07-29T01:11:54;7.55;;;3.50;;
32780;SDS011;19136;47.032;15.502;2023-07-29T01:14:31;9.53;;;3.70;;
32780;SDS011;19136;47.032;15.502;2023-07-29T01:17:00;6.13;;;3.80;;
32780;SDS011;19136;47.032;15.502;2023-07-29T01:22:36;8.10;;;3.97;;
32780;SDS011;19136;47.032;15.502;2023-07-29T01:25:03;5.60;;;3.78;;
32780;SDS011;19136;47.032;15.502;2023-07-29T01:27:29;6.90;;;3.80;;
32780;SDS011;19136;47.032;15.502;2023-07-29T01:29:57;7.13;;;4.00;;
32780;SDS011;19136;47.032;15.502;2023-07-29T01:32:48;6.32;;;3.67;;
32780;SDS011;19136;47.032;15.502;2023-07-29T01:35:17;6.57;;;3.63;;
32780;SDS011;19136;47.032;15.502;2023-07-29T01:37:48;6.70;;;3.55;;
32780;SDS011;19136;47.032;15.502;2023-07-29T01:40:15;6.85;;;3.47;;
32780;SDS011;19136;47.032;15.502;2023-07-29T01:42:42;9.70;;;3.55;;
32780;SDS011;19136;47.032;15.502;2023-07-29T01:45:10;8.48;;;3.55;;
32780;SDS011;19136;47.032;15.502;2023-07-29T01:47:36;9.02;;;3.85;;
32780;SDS011;19136;47.032;15.502;2023-07-29T01:50:06;5.72;;;3.83;;
32780;SDS011;19136;47.032;15.502;2023-07-29T01:52:32;6.07;;;3.88;;
32780;SDS011;19136;47.032;15.502;2023-07-29T01:54:57;7.63;;;4.22;;
32780;SDS011;19136;47.032;15.502;2023-07-29T01:57:23;9.25;;;4.05;;
32780;SDS011;19136;47.032;15.502;2023-07-29T01:59:48;20.88;;;4.57;;
32780;SDS011;19136;47.032;15.502;2023-07-29T02:02:14;7.30;;;4.07;;
32780;SDS011;19136;47.032;15.502;2023-07-29T02:04:40;8.07;;;4.82;;
32780;SDS011;19136;47.032;15.502;2023-07-29T02:07:06;7.00;;;4.22;;
32780;SDS011;19136;47.032;15.502;2023-07-29T02:09:32;7.60;;;4.63;;
32780;SDS011;19136;47.032;15.502;2023-07-29T02:11:58;10.43;;;4.30;;
32780;SDS011;19136;47.032;15.502;2023-07-29T02:14:23;7.20;;;3.95;;
32780;SDS011;19136;47.032;15.502;2023-07-29T02:16:50;9.68;;;4.07;;
32780;SDS011;19136;47.032;15.502;2023-07-29T02:19:16;6.35;;;4.18;;
32780;SDS011;19136;47.032;15.502;2023-07-29T02:21:42;7.93;;;4.43;;
32780;SDS011;19136;47.032;15.502;2023-07-29T02:24:07;6.15;;;3.88;;
32780;SDS011;19136;47.032;15.502;2023-07-29T02:26:33;7.70;;;3.92;;
32780;SDS011;19136;47.032;15.502;2023-07-29T02:28:59;8.52;;;5.00;;
32780;SDS011;19136;47.032;15.502;2023-07-29T02:31:25;6.70;;;4.05;;
32780;SDS011;19136;47.032;15.502;2023-07-29T02:33:51;8.68;;;4.15;;
32780;SDS011;19136;47.032;15.502;2023-07-29T02:36:17;6.47;;;3.53;;
32780;SDS011;19136;47.032;15.502;2023-07-29T02:38:44;7.63;;;4.13;;
32780;SDS011;19136;47.032;15.502;2023-07-29T02:41:10;8.68;;;3.78;;
32780;SDS011;19136;47.032;15.502;2023-07-29T02:43:38;14.40;;;4.50;;
32780;SDS011;19136;47.032;15.502;2023-07-29T02:46:06;7.35;;;4.25;;
32780;SDS011;19136;47.032;15.502;2023-07-29T02:48:32;9.63;;;4.18;;
32780;SDS011;19136;47.032;15.502;2023-07-29T02:50:58;9.27;;;4.38;;
32780;SDS011;19136;47.032;15.502;2023-07-29T02:53:24;7.78;;;4.75;;
32780;SDS011;19136;47.032;15.502;2023-07-29T02:55:50;11.05;;;4.05;;
32780;SDS011;19136;47.032;15.502;2023-07-29T02:58:16;10.68;;;4.97;;
32780;SDS011;19136;47.032;15.502;2023-07-29T03:00:42;6.70;;;4.00;;
32780;SDS011;19136;47.032;15.502;2023-07-29T03:03:08;9.00;;;4.40;;
32780;SDS011;19136;47.032;15.502;2023-07-29T03:05:34;9.38;;;4.10;;
32780;SDS011;19136;47.032;15.502;2023-07-29T03:08:00;7.70;;;4.22;;
32780;SDS011;19136;47.032;15.502;2023-07-29T03:10:27;6.00;;;3.78;;
32780;SDS011;19136;47.032;15.502;2023-07-29T03:12:55;10.48;;;4.20;;
32780;SDS011;19136;47.032;15.502;2023-07-29T03:15:26;9.00;;;3.70;;
32780;SDS011;19136;47.032;15.502;2023-07-29T03:17:53;8.50;;;4.28;;
32780;SDS011;19136;47.032;15.502;2023-07-29T03:20:19;7.68;;;3.70;;
32780;SDS011;19136;47.032;15.502;2023-07-29T03:22:45;10.60;;;4.35;;
32780;SDS011;19136;47.032;15.502;2023-07-29T03:25:13;9.15;;;4.40;;
32780;SDS011;19136;47.032;15.502;2023-07-29T03:27:39;5.55;;;4.07;;
32780;SDS011;19136;47.032;15.502;2023-07-29T03:30:09;9.50;;;4.10;;
32780;SDS011;19136;47.032;15.502;2023-07-29T03:32:37;8.75;;;4.18;;
32780;SDS011;19136;47.032;15.502;2023-07-29T03:35:06;8.07;;;3.80;;
32780;SDS011;19136;47.032;15.502;2023-07-29T03:37:32;7.72;;;4.20;;
32780;SDS011;19136;47.032;15.502;2023-07-29T03:39:58;5.38;;;3.60;;
32780;SDS011;19136;47.032;15.502;2023-07-29T03:42:24;12.57;;;4.32;;
32780;SDS011;19136;47.032;15.502;2023-07-29T03:44:50;10.63;;;4.35;;
32780;SDS011;19136;47.032;15.502;2023-07-29T03:47:15;10.05;;;4.60;;
32780;SDS011;19136;47.032;15.502;2023-07-29T03:49:42;9.43;;;4.30;;
32780;SDS011;19136;47.032;15.502;2023-07-29T03:52:09;9.45;;;4.10;;
32780;SDS011;19136;47.032;15.502;2023-07-29T03:54:35;6.32;;;3.97;;
32780;SDS011;19136;47.032;15.502;2023-07-29T03:57:01;8.88;;;4.18;;
32780;SDS011;19136;47.032;15.502;2023-07-29T03:59:27;9.23;;;4.00;;
32780;SDS011;19136;47.032;15.502;2023-07-29T04:01:53;9.38;;;4.32;;
32780;SDS011;19136;47.032;15.502;2023-07-29T04:04:19;8.70;;;4.20;;
32780;SDS011;19136;47.032;15.502;2023-07-29T04:06:47;6.88;;;4.13;;
32780;SDS011;19136;47.032;15.502;2023-07-29T04:09:13;8.98;;;4.70;;
32780;SDS011;19136;47.032;15.502;2023-07-29T04:11:41;14.60;;;4.35;;
32780;SDS011;19136;47.032;15.502;2023-07-29T04:14:10;13.95;;;4.50;;
32780;SDS011;19136;47.032;15.502;2023-07-29T04:16:36;6.25;;;4.32;;
32780;SDS011;19136;47.032;15.502;2023-07-29T04:19:01;10.25;;;4.45;;
32780;SDS011;19136;47.032;15.502;2023-07-29T04:21:27;7.70;;;3.80;;
32780;SDS011;19136;47.032;15.502;2023-07-29T04:23:53;9.25;;;4.15;;
32780;SDS011;19136;47.032;15.502;2023-07-29T04:26:19;9.02;;;4.22;;
32780;SDS011;19136;47.032;15.502;2023-07-29T04:28:45;5.82;;;3.95;;
32780;SDS011;19136;47.032;15.502;2023-07-29T04:31:12;8.75;;;4.30;;
32780;SDS011;19136;47.032;15.502;2023-07-29T04:33:38;9.80;;;4.20;;
32780;SDS011;19136;47.032;15.502;2023-07-29T04:36:04;9.63;;;4.30;;
32780;SDS011;19136;47.032;15.502;2023-07-29T04:38:31;8.15;;;4.00;;
32780;SDS011;19136;47.032;15.502;2023-07-29T04:40:58;7.53;;;4.05;;
32780;SDS011;19136;47.032;15.502;2023-07-29T04:43:27;7.65;;;4.57;;
32780;SDS011;19136;47.032;15.502;2023-07-29T04:45:58;8.50;;;4.40;;
32780;SDS011;19136;47.032;15.502;2023-07-29T04:48:24;6.57;;;4.32;;
32780;SDS011;19136;47.032;15.502;2023-07-29T04:50:50;10.68;;;4.22;;
32780;SDS011;19136;47.032;15.502;2023-07-29T04:53:16;10.73;;;4.40;;
32780;SDS011;19136;47.032;15.502;2023-07-29T04:55:42;11.63;;;4.43;;
32780;SDS011;19136;47.032;15.502;2023-07-29T04:58:08;7.50;;;4.40;;
32780;SDS011;19136;47.032;15.502;2023-07-29T05:00:38;12.38;;;4.47;;
32780;SDS011;19136;47.032;15.502;2023-07-29T05:03:04;7.18;;;3.72;;
32780;SDS011;19136;47.032;15.502;2023-07-29T05:05:29;9.45;;;4.57;;
32780;SDS011;19136;47.032;15.502;2023-07-29T05:07:56;5.63;;;3.78;;
32780;SDS011;19136;47.032;15.502;2023-07-29T05:10:22;8.88;;;3.88;;
32780;SDS011;19136;47.032;15.502;2023-07-29T05:12:47;11.25;;;3.30;;
32780;SDS011;19136;47.032;15.502;2023-07-29T05:15:14;7.38;;;4.22;;
32780;SDS011;19136;47.032;15.502;2023-07-29T05:17:41;7.10;;;3.42;;
32780;SDS011;19136;47.032;15.502;2023-07-29T05:20:08;8.15;;;3.80;;
32780;SDS011;19136;47.032;15.502;2023-07-29T05:22:34;10.90;;;4.00;;
32780;SDS011;19136;47.032;15.502;2023-07-29T05:25:00;8.65;;;4.07;;
32780;SDS011;19136;47.032;15.502;2023-07-29T05:27:26;6.63;;;3.47;;
32780;SDS011;19136;47.032;15.502;2023-07-29T05:29:52;10.90;;;3.90;;
32780;SDS011;19136;47.032;15.502;2023-07-29T05:32:18;7.32;;;4.65;;
32780;SDS011;19136;47.032;15.502;2023-07-29T05:34:44;8.07;;;5.70;;
32780;SDS011;19136;47.032;15.502;2023-07-29T05:37:09;8.35;;;4.10;;
32780;SDS011;19136;47.032;15.502;2023-07-29T05:39:35;8.35;;;4.18;;
32780;SDS011;19136;47.032;15.502;2023-07-29T05:42:02;7.20;;;4.20;;
32780;SDS011;19136;47.032;15.502;2023-07-29T05:44:28;7.47;;;3.95;;
32780;SDS011;19136;47.032;15.502;2023-07-29T05:46:57;26.52;;;4.80;;
32780;SDS011;19136;47.032;15.502;2023-07-29T05:49:24;9.68;;;4.80;;
32780;SDS011;19136;47.032;15.502;2023-07-29T05:51:51;13.20;;;4.53;;
32780;SDS011;19136;47.032;15.502;2023-07-29T05:54:18;8.68;;;4.60;;
32780;SDS011;19136;47.032;15.502;2023-07-29T05:56:44;8.82;;;4.70;;
32780;SDS011;19136;47.032;15.502;2023-07-29T05:59:10;9.23;;;4.05;;
32780;SDS011;19136;47.032;15.502;2023-07-29T06:01:37;9.13;;;4.28;;
32780;SDS011;19136;47.032;15.502;2023-07-29T06:04:03;6.93;;;4.05;;
32780;SDS011;19136;47.032;15.502;2023-07-29T06:06:29;8.50;;;4.03;;
32780;SDS011;19136;47.032;15.502;2023-07-29T06:08:55;8.77;;;4.00;;
32780;SDS011;19136;47.032;15.502;2023-07-29T06:11:24;12.80;;;4.03;;
32780;SDS011;19136;47.032;15.502;2023-07-29T06:13:50;7.00;;;4.28;;
32780;SDS011;19136;47.032;15.502;2023-07-29T06:16:16;6.88;;;3.53;;
32780;SDS011;19136;47.032;15.502;2023-07-29T06:18:42;7.65;;;3.90;;
32780;SDS011;19136;47.032;15.502;2023-07-29T06:21:08;9.88;;;3.83;;
32780;SDS011;19136;47.032;15.502;2023-07-29T06:23:37;7.18;;;3.45;;
32780;SDS011;19136;47.032;15.502;2023-07-29T06:26:03;7.78;;;4.43;;
32780;SDS011;19136;47.032;15.502;2023-07-29T06:28:29;7.07;;;4.05;;
32780;SDS011;19136;47.032;15.502;2023-07-29T06:30:55;7.45;;;4.20;;
32780;SDS011;19136;47.032;15.502;2023-07-29T06:33:21;5.43;;;3.25;;
32780;SDS011;19136;47.032;15.502;2023-07-29T06:35:48;10.38;;;3.67;;
32780;SDS011;19136;47.032;15.502;2023-07-29T06:38:13;9.18;;;3.70;;
32780;SDS011;19136;47.032;15.502;2023-07-29T06:40:40;16.02;;;5.95;;
32780;SDS011;19136;47.032;15.502;2023-07-29T06:43:06;8.15;;;3.72;;
32780;SDS011;19136;47.032;15.502;2023-07-29T06:45:33;6.03;;;3.92;;
32780;SDS011;19136;47.032;15.502;2023-07-29T06:48:00;7.75;;;3.15;;
32780;SDS011;19136;47.032;15.502;2023-07-29T06:50:26;5.50;;;3.55;;
32780;SDS011;19136;47.032;15.502;2023-07-29T06:52:52;11.77;;;3.67;;
32780;SDS011;19136;47.032;15.502;2023-07-29T06:55:18;7.00;;;3.20;;
32780;SDS011;19136;47.032;15.502;2023-07-29T06:57:44;9.60;;;3.83;;
32780;SDS011;19136;47.032;15.502;2023-07-29T07:00:10;6.05;;;3.58;;
32780;SDS011;19136;47.032;15.502;2023-07-29T07:02:36;6.95;;;3.15;;
32780;SDS011;19136;47.032;15.502;2023-07-29T07:05:02;7.38;;;3.97;;
32780;SDS011;19136;47.032;15.502;2023-07-29T07:07:28;6.00;;;3.85;;
32780;SDS011;19136;47.032;15.502;2023-07-29T07:09:54;6.25;;;3.42;;
32780;SDS011;19136;47.032;15.502;2023-07-29T07:12:20;7.82;;;4.07;;
32780;SDS011;19136;47.032;15.502;2023-07-29T07:14:46;7.97;;;3.65;;
32780;SDS011;19136;47.032;15.502;2023-07-29T07:17:12;6.97;;;3.47;;
32780;SDS011;19136;47.032;15.502;2023-07-29T07:19:38;8.90;;;3.35;;
32780;SDS011;19136;47.032;15.502;2023-07-29T07:22:03;8.20;;;4.03;;
32780;SDS011;19136;47.032;15.502;2023-07-29T07:24:29;8.98;;;3.50;;
32780;SDS011;19136;47.032;15.502;2023-07-29T07:26:55;9.85;;;3.60;;
32780;SDS011;19136;47.032;15.502;2023-07-29T07:29:21;7.40;;;3.60;;
32780;SDS011;19136;47.032;15.502;2023-07-29T07:31:50;7.97;;;3.75;;
32780;SDS011;19136;47.032;15.502;2023-07-29T07:34:37;7.80;;;3.50;;
32780;SDS011;19136;47.032;15.502;2023-07-29T07:37:03;8.57;;;3.45;;
32780;SDS011;19136;47.032;15.502;2023-07-29T07:39:29;7.75;;;3.15;;
32780;SDS011;19136;47.032;15.502;2023-07-29T07:41:56;4.38;;;2.67;;
32780;SDS011;19136;47.032;15.502;2023-07-29T07:44:22;7.90;;;3.17;;
32780;SDS011;19136;47.032;15.502;2023-07-29T07:46:48;8.77;;;3.28;;
32780;SDS011;19136;47.032;15.502;2023-07-29T07:49:15;4.88;;;2.92;;
32780;SDS011;19136;47.032;15.502;2023-07-29T07:51:40;5.05;;;3.00;;
32780;SDS011;19136;47.032;15.502;2023-07-29T07:54:06;6.25;;;3.10;;
32780;SDS011;19136;47.032;15.502;2023-07-29T07:56:32;5.80;;;2.55;;
32780;SDS011;19136;47.032;15.502;2023-07-29T07:58:58;6.53;;;2.60;;
32780;SDS011;19136;47.032;15.502;2023-07-29T08:01:25;5.45;;;3.38;;
32780;SDS011;19136;47.032;15.502;2023-07-29T08:03:54;6.05;;;2.70;;
32780;SDS011;19136;47.032;15.502;2023-07-29T08:06:24;8.13;;;2.72;;
32780;SDS011;19136;47.032;15.502;2023-07-29T08:08:51;3.63;;;2.40;;
32780;SDS011;19136;47.032;15.502;2023-07-29T08:11:17;6.30;;;2.30;;
32780;SDS011;19136;47.032;15.502;2023-07-29T08:13:43;7.03;;;2.67;;
32780;SDS011;19136;47.032;15.502;2023-07-29T08:16:09;4.05;;;2.80;;
32780;SDS011;19136;47.032;15.502;2023-07-29T08:18:35;6.43;;;2.50;;
32780;SDS011;19136;47.032;15.502;2023-07-29T08:21:01;5.85;;;2.90;;
32780;SDS011;19136;47.032;15.502;2023-07-29T08:23:34;5.53;;;2.38;;
32780;SDS011;19136;47.032;15.502;2023-07-29T08:26:01;4.38;;;2.70;;
32780;SDS011;19136;47.032;15.502;2023-07-29T08:28:30;4.18;;;2.80;;
32780;SDS011;19136;47.032;15.502;2023-07-29T08:31:05;8.50;;;3.08;;
32780;SDS011;19136;47.032;15.502;2023-07-29T08:33:32;6.85;;;2.72;;
32780;SDS011;19136;47.032;15.502;2023-07-29T08:36:01;6.78;;;3.50;;
32780;SDS011;19136;47.032;15.502;2023-07-29T08:38:28;7.40;;;3.42;;
32780;SDS011;19136;47.032;15.502;2023-07-29T08:40:58;5.95;;;3.13;;
32780;SDS011;19136;47.032;15.502;2023-07-29T08:43:31;4.72;;;2.90;;
32780;SDS011;19136;47.032;15.502;2023-07-29T08:45:58;3.20;;;2.90;;
32780;SDS011;19136;47.032;15.502;2023-07-29T08:48:29;5.85;;;3.20;;
32780;SDS011;19136;47.032;15.502;2023-07-29T08:51:07;7.72;;;3.22;;
32780;SDS011;19136;47.032;15.502;2023-07-29T08:53:34;4.22;;;2.80;;
32780;SDS011;19136;47.032;15.502;2023-07-29T08:56:03;6.50;;;2.92;;
32780;SDS011;19136;47.032;15.502;2023-07-29T08:58:34;5.97;;;3.10;;
32780;SDS011;19136;47.032;15.502;2023-07-29T09:01:02;6.25;;;2.90;;
32780;SDS011;19136;47.032;15.502;2023-07-29T09:03:32;4.88;;;2.80;;
32780;SDS011;19136;47.032;15.502;2023-07-29T09:05:59;3.88;;;2.72;;
32780;SDS011;19136;47.032;15.502;2023-07-29T09:08:28;5.40;;;2.97;;
32780;SDS011;19136;47.032;15.502;2023-07-29T09:10:55;6.85;;;2.70;;
32780;SDS011;19136;47.032;15.502;2023-07-29T09:13:22;6.88;;;3.03;;
32780;SDS011;19136;47.032;15.502;2023-07-29T09:15:49;5.13;;;2.85;;
32780;SDS011;19136;47.032;15.502;2023-07-29T09:18:16;5.10;;;3.13;;
32780;SDS011;19136;47.032;15.502;2023-07-29T09:20:49;4.38;;;2.92;;
32780;SDS011;19136;47.032;15.502;2023-07-29T09:23:16;5.85;;;2.97;;
32780;SDS011;19136;47.032;15.502;2023-07-29T09:25:43;4.32;;;2.90;;
32780;SDS011;19136;47.032;15.502;2023-07-29T09:28:14;6.88;;;2.90;;
32780;SDS011;19136;47.032;15.502;2023-07-29T09:30:42;3.70;;;2.50;;
32780;SDS011;19136;47.032;15.502;2023-07-29T09:33:11;4.05;;;2.53;;
32780;SDS011;19136;47.032;15.502;2023-07-29T09:35:38;4.53;;;2.50;;
32780;SDS011;19136;47.032;15.502;2023-07-29T09:38:05;3.95;;;2.40;;
32780;SDS011;19136;47.032;15.502;2023-07-29T09:40:37;4.03;;;2.45;;
32780;SDS011;19136;47.032;15.502;2023-07-29T09:43:08;4.35;;;2.22;;
32780;SDS011;19136;47.032;15.502;2023-07-29T09:45:36;3.22;;;2.55;;
32780;SDS011;19136;47.032;15.502;2023-07-29T09:48:04;5.80;;;2.50;;
32780;SDS011;19136;47.032;15.502;2023-07-29T09:50:36;3.88;;;2.55;;
32780;SDS011;19136;47.032;15.502;2023-07-29T09:53:04;3.85;;;2.58;;
32780;SDS011;19136;47.032;15.502;2023-07-29T09:55:34;5.72;;;3.03;;
32780;SDS011;19136;47.032;15.502;2023-07-29T09:58:01;3.28;;;2.50;;
32780;SDS011;19136;47.032;15.502;2023-07-29T10:00:31;3.63;;;2.50;;
32780;SDS011;19136;47.032;15.502;2023-07-29T10:02:59;3.85;;;2.65;;
32780;SDS011;19136;47.032;15.502;2023-07-29T10:05:26;4.80;;;2.63;;
32780;SDS011;19136;47.032;15.502;2023-07-29T10:07:56;3.28;;;2.22;;
32780;SDS011;19136;47.032;15.502;2023-07-29T10:10:24;3.10;;;2.30;;
32780;SDS011;19136;47.032;15.502;2023-07-29T10:12:51;3.72;;;2.55;;
32780;SDS011;19136;47.032;15.502;2023-07-29T10:15:18;5.60;;;2.55;;
32780;SDS011;19136;47.032;15.502;2023-07-29T10:17:45;4.90;;;2.60;;
32780;SDS011;19136;47.032;15.502;2023-07-29T10:20:13;5.30;;;2.40;;
32780;SDS011;19136;47.032;15.502;2023-07-29T10:22:41;3.80;;;2.53;;
32780;SDS011;19136;47.032;15.502;2023-07-29T10:25:10;3.45;;;2.50;;
32780;SDS011;19136;47.032;15.502;2023-07-29T10:30:31;5.07;;;2.80;;
32780;SDS011;19136;47.032;15.502;2023-07-29T10:32:58;5.07;;;2.72;;
32780;SDS011;19136;47.032;15.502;2023-07-29T10:35:28;4.35;;;2.85;;
32780;SDS011;19136;47.032;15.502;2023-07-29T10:37:56;4.72;;;2.70;;
32780;SDS011;19136;47.032;15.502;2023-07-29T10:40:23;4.18;;;2.65;;
32780;SDS011;19136;47.032;15.502;2023-07-29T10:42:59;3.58;;;2.70;;
32780;SDS011;19136;47.032;15.502;2023-07-29T10:45:29;4.38;;;2.50;;
32780;SDS011;19136;47.032;15.502;2023-07-29T10:48:10;3.45;;;2.33;;
32780;SDS011;19136;47.032;15.502;2023-07-29T10:50:40;4.97;;;2.78;;
32780;SDS011;19136;47.032;15.502;2023-07-29T10:53:06;11.85;;;2.28;;
32780;SDS011;19136;47.032;15.502;2023-07-29T10:55:36;7.07;;;3.58;;
32780;SDS011;19136;47.032;15.502;2023-07-29T10:58:13;3.80;;;2.85;;
32780;SDS011;19136;47.032;15.502;2023-07-29T11:00:43;4.57;;;2.15;;
32780;SDS011;19136;47.032;15.502;2023-07-29T11:03:11;2.67;;;2.25;;
32780;SDS011;19136;47.032;15.502;2023-07-29T11:05:44;3.95;;;2.30;;
32780;SDS011;19136;47.032;15.502;2023-07-29T11:08:26;4.90;;;2.75;;
32780;SDS011;19136;47.032;15.502;2023-07-29T11:11:02;2.70;;;1.75;;
32780;SDS011;19136;47.032;15.502;2023-07-29T11:13:30;3.88;;;2.10;;
32780;SDS011;19136;47.032;15.502;2023-07-29T11:15:59;3.53;;;1.95;;
32780;SDS011;19136;47.032;15.502;2023-07-29T11:18:30;2.58;;;2.10;;
32780;SDS011;19136;47.032;15.502;2023-07-29T11:20:58;4.15;;;2.42;;
32780;SDS011;19136;47.032;15.502;2023-07-29T11:23:31;4.40;;;2.10;;
32780;SDS011;19136;47.032;15.502;2023-07-29T11:26:02;4.32;;;2.22;;
32780;SDS011;19136;47.032;15.502;2023-07-29T11:28:37;5.10;;;2.70;;
32780;SDS011;19136;47.032;15.502;2023-07-29T11:31:04;3.85;;;2.17;;
32780;SDS011;19136;47.032;15.502;2023-07-29T11:33:30;3.38;;;2.10;;
32780;SDS011;19136;47.032;15.502;2023-07-29T11:35:56;3.88;;;2.28;;
32780;SDS011;19136;47.032;15.502;2023-07-29T11:38:22;3.30;;;2.28;;
32780;SDS011;19136;47.032;15.502;2023-07-29T11:40:59;3.20;;;2.10;;
32780;SDS011;19136;47.032;15.502;2023-07-29T11:43:25;4.95;;;2.38;;
32780;SDS011;19136;47.032;15.502;2023-07-29T11:45:52;4.05;;;2.22;;
32780;SDS011;19136;47.032;15.502;2023-07-29T11:48:25;12.88;;;2.22;;
32780;SDS011;19136;47.032;15.502;2023-07-29T11:50:53;3.03;;;2.20;;
32780;SDS011;19136;47.032;15.502;2023-07-29T11:53:18;3.10;;;1.95;;
32780;SDS011;19136;47.032;15.502;2023-07-29T11:55:44;3.15;;;2.17;;
32780;SDS011;19136;47.032;15.502;2023-07-29T11:58:10;3.53;;;2.28;;
32780;SDS011;19136;47.032;15.502;2023-07-29T12:00:37;4.50;;;2.60;;
32780;SDS011;19136;47.032;15.502;2023-07-29T12:03:05;4.38;;;2.50;;
32780;SDS011;19136;47.032;15.502;2023-07-29T12:05:33;2.88;;;2.15;;
32780;SDS011;19136;47.032;15.502;2023-07-29T12:08:00;6.55;;;2.17;;
32780;SDS011;19136;47.032;15.502;2023-07-29T12:10:27;5.03;;;2.60;;
32780;SDS011;19136;47.032;15.502;2023-07-29T12:12:57;5.32;;;2.40;;
32780;SDS011;19136;47.032;15.502;2023-07-29T12:15:24;5.82;;;2.65;;
32780;SDS011;19136;47.032;15.502;2023-07-29T12:17:53;5.72;;;1.98;;
32780;SDS011;19136;47.032;15.502;2023-07-29T12:20:22;3.80;;;2.63;;
32780;SDS011;19136;47.032;15.502;2023-07-29T12:22:51;3.22;;;2.17;;
32780;SDS011;19136;47.032;15.502;2023-07-29T12:25:23;3.72;;;2.90;;
32780;SDS011;19136;47.032;15.502;2023-07-29T12:27:51;3.42;;;2.20;;
32780;SDS011;19136;47.032;15.502;2023-07-29T12:30:21;9.18;;;2.30;;
32780;SDS011;19136;47.032;15.502;2023-07-29T12:32:50;5.53;;;2.42;;
32780;SDS011;19136;47.032;15.502;2023-07-29T12:35:17;5.60;;;2.45;;
32780;SDS011;19136;47.032;15.502;2023-07-29T12:37:44;6.30;;;2.60;;
32780;SDS011;19136;47.032;15.502;2023-07-29T12:42:48;7.10;;;2.97;;
32780;SDS011;19136;47.032;15.502;2023-07-29T12:45:15;5.35;;;2.83;;
32780;SDS011;19136;47.032;15.502;2023-07-29T12:47:43;3.97;;;2.25;;
32780;SDS011;19136;47.032;15.502;2023-07-29T12:50:10;4.53;;;2.50;;
32780;SDS011;19136;47.032;15.502;2023-07-29T12:52:37;5.60;;;2.65;;
32780;SDS011;19136;47.032;15.502;2023-07-29T12:55:05;7.40;;;2.83;;
32780;SDS011;19136;47.032;15.502;2023-07-29T12:57:34;3.53;;;1.83;;
32780;SDS011;19136;47.032;15.502;2023-07-29T13:00:05;4.05;;;2.40;;
32780;SDS011;19136;47.032;15.502;2023-07-29T13:02:33;5.28;;;2.58;;
32780;SDS011;19136;47.032;15.502;2023-07-29T13:04:59;5.68;;;2.33;;
32780;SDS011;19136;47.032;15.502;2023-07-29T13:07:28;6.72;;;2.53;;
32780;SDS011;19136;47.032;15.502;2023-07-29T13:09:55;2.65;;;1.95;;
32780;SDS011;19136;47.032;15.502;2023-07-29T13:12:21;4.80;;;2.80;;
32780;SDS011;19136;47.032;15.502;2023-07-29T13:14:49;3.97;;;2.58;;
32780;SDS011;19136;47.032;15.502;2023-07-29T13:17:15;3.33;;;2.47;;
32780;SDS011;19136;47.032;15.502;2023-07-29T13:19:42;5.78;;;2.75;;
32780;SDS011;19136;47.032;15.502;2023-07-29T13:22:09;4.50;;;2.60;;
32780;SDS011;19136;47.032;15.502;2023-07-29T13:24:35;5.85;;;2.47;;
32780;SDS011;19136;47.032;15.502;2023-07-29T13:27:05;4.68;;;2.80;;
32780;SDS011;19136;47.032;15.502;2023-07-29T13:29:33;6.22;;;2.67;;
32780;SDS011;19136;47.032;15.502;2023-07-29T13:32:02;6.65;;;2.60;;
32780;SDS011;19136;47.032;15.502;2023-07-29T13:34:31;8.07;;;3.30;;
32780;SDS011;19136;47.032;15.502;2023-07-29T13:37:00;8.70;;;3.10;;
32780;SDS011;19136;47.032;15.502;2023-07-29T13:39:26;8.32;;;2.90;;
32780;SDS011;19136;47.032;15.502;2023-07-29T13:41:53;8.63;;;3.05;;
32780;SDS011;19136;47.032;15.502;2023-07-29T13:44:20;9.60;;;3.35;;
32780;SDS011;19136;47.032;15.502;2023-07-29T13:46:46;4.38;;;2.95;;
32780;SDS011;19136;47.032;15.502;2023-07-29T13:49:12;3.80;;;2.50;;
32780;SDS011;19136;47.032;15.502;2023-07-29T13:51:39;5.72;;;2.60;;
32780;SDS011;19136;47.032;15.502;2023-07-29T13:54:05;5.80;;;2.72;;
32780;SDS011;19136;47.032;15.502;2023-07-29T13:56:31;5.10;;;2.53;;
32780;SDS011;19136;47.032;15.502;2023-07-29T13:58:57;8.88;;;2.80;;
32780;SDS011;19136;47.032;15.502;2023-07-29T14:01:27;3.65;;;2.30;;
32780;SDS011;19136;47.032;15.502;2023-07-29T14:03:56;3.75;;;2.75;;
32780;SDS011;19136;47.032;15.502;2023-07-29T14:06:22;4.07;;;2.83;;
32780;SDS011;19136;47.032;15.502;2023-07-29T14:08:49;5.40;;;2.70;;
32780;SDS011;19136;47.032;15.502;2023-07-29T14:11:15;5.18;;;2.50;;
32780;SDS011;19136;47.032;15.502;2023-07-29T14:13:41;4.35;;;2.13;;
32780;SDS011;19136;47.032;15.502;2023-07-29T14:16:07;3.97;;;2.00;;
32780;SDS011;19136;47.032;15.502;2023-07-29T14:18:33;3.67;;;2.17;;
32780;SDS011;19136;47.032;15.502;2023-07-29T14:20:59;3.85;;;2.60;;
32780;SDS011;19136;47.032;15.502;2023-07-29T14:23:26;4.40;;;2.50;;
32780;SDS011;19136;47.032;15.502;2023-07-29T14:25:53;8.38;;;3.10;;
32780;SDS011;19136;47.032;15.502;2023-07-29T14:28:20;4.97;;;3.05;;
32780;SDS011;19136;47.032;15.502;2023-07-29T14:30:46;4.07;;;2.90;;
32780;SDS011;19136;47.032;15.502;2023-07-29T14:33:12;7.38;;;2.30;;
32780;SDS011;19136;47.032;15.502;2023-07-29T14:35:40;6.05;;;2.40;;
32780;SDS011;19136;47.032;15.502;2023-07-29T14:38:06;3.55;;;2.58;;
32780;SDS011;19136;47.032;15.502;2023-07-29T14:40:32;4.40;;;2.60;;
32780;SDS011;19136;47.032;15.502;2023-07-29T14:42:58;4.65;;;2.35;;
32780;SDS011;19136;47.032;15.502;2023-07-29T14:45:24;5.88;;;2.47;;
32780;SDS011;19136;47.032;15.502;2023-07-29T14:47:50;4.80;;;2.53;;